createdAt,value
2018-11-01T00:01:22.667Z,100367.84
2018-11-01T00:03:52.596Z,100368.16
2018-11-01T00:06:22.537Z,100364.72
2018-11-01T00:08:52.439Z,100356.69
2018-11-01T00:11:22.355Z,100366.20
2018-11-01T00:13:52.143Z,100371.28
2018-11-01T00:16:21.967Z,100367.84
2018-11-01T00:18:52.144Z,100369.40
2018-11-01T00:21:21.995Z,100376.46
2018-11-01T00:23:51.791Z,100373.28
2018-11-01T00:26:21.527Z,100369.48
2018-11-01T00:28:51.627Z,100364.17
2018-11-01T00:31:21.413Z,100364.47
2018-11-01T00:33:51.203Z,100365.56
2018-11-01T00:36:21.081Z,100358.16
2018-11-01T00:38:51.139Z,100353.88
2018-11-01T00:41:21.173Z,100361.67
2018-11-01T00:43:51.150Z,100361.22
2018-11-01T00:46:20.959Z,100364.83
2018-11-01T00:48:51.009Z,100359.57
2018-11-01T00:51:20.842Z,100359.36
2018-11-01T00:53:50.818Z,100360.62
2018-11-01T00:56:20.661Z,100358.63
2018-11-01T00:58:50.624Z,100362.66
2018-11-01T01:01:20.409Z,100365.33
2018-11-01T01:03:50.297Z,100357.64
2018-11-01T01:06:20.235Z,100363.36
2018-11-01T01:08:50.106Z,100359.01
2018-11-01T01:11:19.928Z,100366.03
2018-11-01T01:13:49.874Z,100363.82
2018-11-01T01:16:19.648Z,100369.61
2018-11-01T01:18:49.520Z,100373.11
2018-11-01T01:21:19.293Z,100379.22
2018-11-01T01:23:49.041Z,100374.38
2018-11-01T01:26:18.888Z,100373.53
2018-11-01T01:28:48.858Z,100378.06
2018-11-01T01:31:18.873Z,100373.36
2018-11-01T01:33:48.899Z,100380.30
2018-11-01T01:36:18.838Z,100384.80
2018-11-01T01:38:48.792Z,100387.18
2018-11-01T01:41:18.771Z,100386.20
2018-11-01T01:43:48.600Z,100388.83
2018-11-01T01:46:18.603Z,100391.45
2018-11-01T01:48:48.399Z,100390.83
2018-11-01T01:51:18.203Z,100389.56
2018-11-01T01:53:48.024Z,100397.34
2018-11-01T01:56:17.775Z,100382.75
2018-11-01T01:58:47.743Z,100383.66
2018-11-01T02:01:17.723Z,100379.81
2018-11-01T02:03:47.630Z,100381.80
2018-11-01T02:06:17.551Z,100378.72
2018-11-01T02:08:47.493Z,100365.58
2018-11-01T02:11:17.449Z,100364.61
2018-11-01T02:13:47.343Z,100355.91
2018-11-01T02:16:17.051Z,100360.41
2018-11-01T02:18:47.191Z,100369.89
2018-11-01T02:21:17.111Z,100367.72
2018-11-01T02:23:47.181Z,100373.66
2018-11-01T02:26:17.058Z,100367.39
2018-11-01T02:28:46.935Z,100368.02
2018-11-01T02:31:16.954Z,100353.70
2018-11-01T02:33:47.005Z,100341.56
2018-11-01T02:36:16.863Z,100329.53
2018-11-01T02:38:46.899Z,100329.08
2018-11-01T02:41:16.757Z,100331.28
2018-11-01T02:43:46.565Z,100322.12
2018-11-01T02:46:16.533Z,100314.63
2018-11-01T02:48:46.415Z,100311.56
2018-11-01T02:51:17.245Z,100316.05
2018-11-01T02:53:47.093Z,100324.19
2018-11-01T02:56:17.084Z,100335.17
2018-11-01T02:58:47.083Z,100330.92
2018-11-01T03:01:18.562Z,100331.38
2018-11-01T03:03:49.636Z,100331.36
2018-11-01T03:06:19.719Z,100328.07
2018-11-01T03:08:49.492Z,100327.62
2018-11-01T03:11:19.433Z,100337.81
2018-11-01T03:13:49.378Z,100334.28
2018-11-01T03:16:19.246Z,100343.05
2018-11-01T03:18:49.329Z,100340.46
2018-11-01T03:21:19.312Z,100343.45
2018-11-01T03:23:49.147Z,100335.97
2018-11-01T03:26:19.010Z,100337.91
2018-11-01T03:28:48.711Z,100338.44
2018-11-01T03:31:18.753Z,100344.17
2018-11-01T03:33:48.723Z,100346.52
2018-11-01T03:36:18.532Z,100345.47
2018-11-01T03:38:48.629Z,100343.91
2018-11-01T03:41:18.559Z,100341.63
2018-11-01T03:43:48.368Z,100339.88
2018-11-01T03:46:18.200Z,100342.30
2018-11-01T03:48:48.162Z,100340.70
2018-11-01T03:51:18.058Z,100337.27
2018-11-01T03:53:47.878Z,100327.77
2018-11-01T03:56:17.854Z,100329.88
2018-11-01T03:58:47.835Z,100323.22
2018-11-01T04:01:17.957Z,100305.83
2018-11-01T04:03:47.899Z,100301.37
2018-11-01T04:06:17.698Z,100288.39
2018-11-01T04:08:47.669Z,100288.31
2018-11-01T04:11:17.683Z,100285.05
2018-11-01T04:13:47.603Z,100283.02
2018-11-01T04:16:17.554Z,100276.35
2018-11-01T04:18:47.381Z,100281.23
2018-11-01T04:21:17.356Z,100272.96
2018-11-01T04:23:47.201Z,100268.53
2018-11-01T04:26:17.185Z,100265.34
2018-11-01T04:28:47.212Z,100269.98
2018-11-01T04:31:17.113Z,100271.67
2018-11-01T04:33:47.152Z,100271.55
2018-11-01T04:36:16.947Z,100273.77
2018-11-01T04:38:46.907Z,100275.06
2018-11-01T04:41:16.906Z,100283.41
2018-11-01T04:43:46.876Z,100277.69
2018-11-01T04:46:16.823Z,100288.88
2018-11-01T04:48:46.679Z,100301.05
2018-11-01T04:51:16.480Z,100296.77
2018-11-01T04:53:46.362Z,100297.55
2018-11-01T04:56:16.175Z,100299.15
2018-11-01T04:58:46.194Z,100298.94
2018-11-01T05:01:19.603Z,100294.60
2018-11-01T05:03:49.874Z,100295.23
2018-11-01T05:06:19.923Z,100291.53
2018-11-01T05:08:50.229Z,100285.02
2018-11-01T05:11:20.230Z,100294.07
2018-11-01T05:13:50.047Z,100292.76
2018-11-01T05:16:19.808Z,100281.34
2018-11-01T05:18:49.712Z,100281.11
2018-11-01T05:21:19.711Z,100269.13
2018-11-01T05:23:49.597Z,100263.84
2018-11-01T05:26:19.600Z,100269.42
2018-11-01T05:28:49.716Z,100271.70
2018-11-01T05:31:19.490Z,100274.70
2018-11-01T05:33:49.347Z,100285.98
2018-11-01T05:36:19.205Z,100285.53
2018-11-01T05:38:48.989Z,100276.55
2018-11-01T05:41:19.489Z,100277.00
2018-11-01T05:43:49.460Z,100285.63
2018-11-01T05:46:19.445Z,100282.20
2018-11-01T05:48:49.297Z,100291.63
2018-11-01T05:51:19.098Z,100281.01
2018-11-01T05:53:49.186Z,100284.91
2018-11-01T05:56:19.229Z,100284.78
2018-11-01T05:58:49.243Z,100293.44
2018-11-01T06:01:24.005Z,100293.48
2018-11-01T06:03:53.748Z,100287.91
2018-11-01T06:06:23.495Z,100292.00
2018-11-01T06:08:54.148Z,100295.73
2018-11-01T06:11:24.017Z,100299.69
2018-11-01T06:13:53.844Z,100293.77
2018-11-01T06:16:23.715Z,100285.03
2018-11-01T06:18:53.726Z,100280.64
2018-11-01T06:21:23.688Z,100289.69
2018-11-01T06:23:53.692Z,100297.41
2018-11-01T06:26:23.552Z,100294.39
2018-11-01T06:28:53.413Z,100292.23
2018-11-01T06:31:23.516Z,100294.59
2018-11-01T06:33:53.622Z,100298.41
2018-11-01T06:36:27.973Z,100308.43
2018-11-01T06:38:58.003Z,100307.11
2018-11-01T06:41:27.800Z,100312.89
2018-11-01T06:43:57.656Z,100308.08
2018-11-01T06:46:27.655Z,100306.45
2018-11-01T06:48:57.763Z,100300.12
2018-11-01T06:51:27.722Z,100293.07
2018-11-01T06:53:57.596Z,100298.20
2018-11-01T06:56:27.562Z,100306.80
2018-11-01T06:58:57.555Z,100302.88
2018-11-01T07:01:27.528Z,100297.36
2018-11-01T07:03:57.774Z,100304.84
2018-11-01T07:06:27.678Z,100307.08
2018-11-01T07:08:57.726Z,100314.81
2018-11-01T07:11:27.714Z,100309.56
2018-11-01T07:13:58.174Z,100303.56
2018-11-01T07:16:28.017Z,100302.21
2018-11-01T07:18:57.997Z,100301.23
2018-11-01T07:21:27.975Z,100308.02
2018-11-01T07:23:58.378Z,100314.70
2018-11-01T07:26:28.282Z,100310.30
2018-11-01T07:28:58.148Z,100305.30
2018-11-01T07:31:28.243Z,100301.78
2018-11-01T07:33:58.178Z,100298.41
2018-11-01T07:36:28.129Z,100293.93
2018-11-01T07:38:58.572Z,100286.09
2018-11-01T07:41:28.363Z,100279.31
2018-11-01T07:43:58.723Z,100278.16
2018-11-01T07:46:29.177Z,100280.06
2018-11-01T07:48:59.127Z,100278.70
2018-11-01T07:51:28.863Z,100269.45
2018-11-01T07:53:58.834Z,100270.94
2018-11-01T07:56:28.884Z,100263.89
2018-11-01T07:58:59.103Z,100268.47
2018-11-01T08:01:29.768Z,100269.56
2018-11-01T08:03:59.623Z,100270.24
2018-11-01T08:06:29.611Z,100270.69
2018-11-01T08:08:59.557Z,100262.76
2018-11-01T08:11:29.358Z,100259.75
2018-11-01T08:13:59.447Z,100259.83
2018-11-01T08:16:29.450Z,100266.20
2018-11-01T08:18:59.324Z,100261.28
2018-11-01T08:21:29.306Z,100258.16
2018-11-01T08:23:59.415Z,100253.88
2018-11-01T08:26:29.278Z,100262.73
2018-11-01T08:28:59.517Z,100253.16
2018-11-01T08:31:29.438Z,100254.16
2018-11-01T08:33:59.392Z,100252.02
2018-11-01T08:36:29.243Z,100254.84
2018-11-01T08:38:59.150Z,100249.22
2018-11-01T08:41:28.951Z,100240.19
2018-11-01T08:43:58.775Z,100230.72
2018-11-01T08:46:28.797Z,100218.45
2018-11-01T08:48:58.815Z,100213.27
2018-11-01T08:51:28.726Z,100212.75
2018-11-01T08:53:58.823Z,100211.84
2018-11-01T08:56:28.875Z,100221.65
2018-11-01T08:58:58.891Z,100219.80
2018-11-01T09:01:28.868Z,100217.53
2018-11-01T09:03:58.874Z,100221.41
2018-11-01T09:06:28.746Z,100217.92
2018-11-01T09:08:58.881Z,100220.77
2018-11-01T09:11:29.145Z,100218.26
2018-11-01T09:13:59.074Z,100221.46
2018-11-01T09:16:28.816Z,100215.74
2018-11-01T09:18:58.847Z,100225.12
2018-11-01T09:21:29.072Z,100219.07
2018-11-01T09:24:17.491Z,100224.58
2018-11-01T09:26:48.298Z,100234.42
2018-11-01T09:29:18.254Z,100230.89
2018-11-01T09:31:48.060Z,100228.98
2018-11-01T09:34:18.844Z,100226.78
2018-11-01T09:36:48.654Z,100220.92
2018-11-01T09:39:18.541Z,100224.78
2018-11-01T09:41:48.503Z,100225.45
2018-11-01T09:44:18.375Z,100228.84
2018-11-01T09:46:48.836Z,100239.78
2018-11-01T09:49:18.749Z,100236.23
2018-11-01T09:51:48.572Z,100234.42
2018-11-01T09:54:18.451Z,100230.14
2018-11-01T09:56:53.453Z,100232.35
2018-11-01T09:59:23.730Z,100229.92
2018-11-01T10:01:53.620Z,100223.14
2018-11-01T10:04:23.899Z,100223.63
2018-11-01T10:06:53.787Z,100232.76
2018-11-01T10:09:23.674Z,100234.52
2018-11-01T10:11:53.635Z,100244.81
2018-11-01T10:14:23.679Z,100246.91
2018-11-01T10:16:54.676Z,100248.67
2018-11-01T10:19:24.445Z,100234.80
2018-11-01T10:21:54.633Z,100235.34
2018-11-01T10:24:24.677Z,100228.46
2018-11-01T10:26:54.648Z,100220.76
2018-11-01T10:29:24.707Z,100213.20
2018-11-01T10:31:54.871Z,100208.62
2018-11-01T10:34:25.802Z,100211.22
2018-11-01T10:36:55.963Z,100206.14
2018-11-01T10:39:26.204Z,100206.33
2018-11-01T10:42:01.755Z,100201.86
2018-11-01T10:44:34.229Z,100199.00
2018-11-01T10:47:31.510Z,100196.36
2018-11-01T10:53:31.740Z,100205.11
2018-11-01T10:56:13.054Z,100202.05
2018-11-01T10:58:43.162Z,100205.38
2018-11-01T11:01:18.823Z,100213.66
2018-11-01T11:03:49.078Z,100217.55
2018-11-01T11:06:19.545Z,100217.68
2018-11-01T11:22:36.008Z,100176.53
2018-11-01T11:25:09.146Z,100173.02
2018-11-01T11:27:39.642Z,100158.78
2018-11-01T11:30:11.067Z,100159.13
2018-11-01T11:32:41.176Z,100160.47
2018-11-01T11:35:11.666Z,100152.27
2018-11-01T11:37:41.780Z,100146.34
2018-11-01T11:40:12.760Z,100158.70
2018-11-01T11:42:42.681Z,100148.32
2018-11-01T11:45:13.531Z,100137.45
2018-11-01T11:47:43.976Z,100140.46
2018-11-01T11:50:14.466Z,100129.53
2018-11-01T11:52:45.262Z,100139.38
2018-11-01T11:55:15.190Z,100145.34
2018-11-01T11:57:45.206Z,100144.04
2018-11-01T12:00:16.364Z,100139.84
2018-11-01T12:02:46.630Z,100157.45
2018-11-01T12:05:16.613Z,100158.55
2018-11-01T12:07:46.583Z,100154.73
2018-11-01T12:10:16.567Z,100159.05
2018-11-01T12:12:46.421Z,100165.42
2018-11-01T12:15:16.513Z,100158.63
2018-11-01T12:17:46.611Z,100158.52
2018-11-01T12:20:16.716Z,100155.39
2018-11-01T12:22:46.678Z,100150.62
2018-11-01T12:25:16.847Z,100146.17
2018-11-01T12:27:46.931Z,100144.98
2018-11-01T12:30:16.857Z,100149.73
2018-11-01T12:32:47.302Z,100148.39
2018-11-01T12:35:17.312Z,100148.61
2018-11-01T12:37:47.132Z,100153.05
2018-11-01T12:40:16.975Z,100149.16
2018-11-01T12:42:46.869Z,100151.42
2018-11-01T12:45:16.741Z,100137.34
2018-11-01T12:47:46.855Z,100137.86
2018-11-01T12:50:16.860Z,100137.48
2018-11-01T12:52:46.773Z,100137.94
2018-11-01T12:55:16.800Z,100139.08
2018-11-01T12:57:51.592Z,100145.58
2018-11-01T13:00:21.490Z,100152.08
2018-11-01T13:02:51.607Z,100156.09
2018-11-01T13:05:21.673Z,100156.53
2018-11-01T13:07:51.730Z,100163.66
2018-11-01T13:10:21.955Z,100158.53
2018-11-01T13:12:53.105Z,100171.62
2018-11-01T13:15:30.225Z,100161.92
2018-11-01T13:18:00.170Z,100156.69
2018-11-01T13:20:30.077Z,100167.36
2018-11-01T13:23:00.117Z,100166.81
2018-11-01T13:25:30.233Z,100169.02
2018-11-01T13:28:00.450Z,100171.16
2018-11-01T13:30:30.436Z,100180.80
2018-11-01T13:33:00.683Z,100184.97
2018-11-01T13:35:30.768Z,100184.21
2018-11-01T13:38:00.641Z,100183.58
2018-11-01T13:40:30.930Z,100180.22
2018-11-01T13:43:01.396Z,100178.46
2018-11-01T13:45:31.448Z,100187.11
2018-11-01T13:48:01.451Z,100183.58
2018-11-01T13:50:32.744Z,100186.81
2018-11-01T13:53:03.118Z,100188.20
2018-11-01T13:55:33.129Z,100191.34
2018-11-01T13:58:03.561Z,100189.24
2018-11-01T14:00:33.607Z,100194.31
2018-11-01T14:03:03.652Z,100200.48
2018-11-01T14:05:33.731Z,100198.34
2018-11-01T14:08:03.679Z,100202.33
2018-11-01T14:10:34.959Z,100200.19
2018-11-01T14:13:05.109Z,100207.91
2018-11-01T14:15:35.261Z,100208.28
2018-11-01T14:18:14.285Z,100213.78
2018-11-01T14:20:44.707Z,100214.16
2018-11-01T14:23:14.733Z,100212.61
2018-11-01T14:25:44.724Z,100213.39
2018-11-01T14:28:14.579Z,100216.70
2018-11-01T14:30:44.614Z,100215.36
2018-11-01T14:33:14.591Z,100217.80
2018-11-01T14:35:44.617Z,100224.46
2018-11-01T14:38:14.792Z,100232.01
2018-11-01T14:40:44.660Z,100234.69
2018-11-01T14:43:14.713Z,100226.55
2018-11-01T14:45:45.102Z,100228.39
2018-11-01T14:48:22.982Z,100226.25
2018-11-01T14:50:53.267Z,100228.39
2018-11-01T14:53:24.044Z,100226.67
2018-11-01T14:55:55.004Z,100228.80
2018-11-01T14:58:24.862Z,100223.22
2018-11-01T15:00:53.823Z,100221.97
2018-11-01T15:03:23.651Z,100225.56
2018-11-01T15:05:53.539Z,100223.42
2018-11-01T15:08:23.470Z,100228.48
2018-11-01T15:10:53.387Z,100236.35
2018-11-01T15:13:23.406Z,100244.95
2018-11-01T15:15:53.328Z,100248.42
2018-11-01T15:18:23.729Z,100241.89
2018-11-01T15:20:54.242Z,100238.19
2018-11-01T15:23:24.069Z,100235.79
2018-11-01T15:25:56.274Z,100238.70
2018-11-01T15:28:26.320Z,100240.92
2018-11-01T15:30:57.621Z,100234.42
2018-11-01T15:33:27.530Z,100235.88
2018-11-01T15:35:58.390Z,100235.03
2018-11-01T15:38:31.154Z,100238.06
2018-11-01T15:41:02.315Z,100241.95
2018-11-01T15:43:32.377Z,100235.42
2018-11-01T15:46:02.363Z,100230.42
2018-11-01T15:48:32.613Z,100232.94
2018-11-01T15:51:02.394Z,100235.50
2018-11-01T15:53:32.233Z,100242.22
2018-11-01T15:56:02.254Z,100233.47
2018-11-01T15:58:32.183Z,100242.30
2018-11-01T16:01:02.133Z,100238.93
2018-11-01T16:03:32.258Z,100240.08
2018-11-01T16:06:02.281Z,100239.95
2018-11-01T16:08:33.329Z,100241.76
2018-11-01T16:11:03.246Z,100242.22
2018-11-01T16:13:34.150Z,100243.67
2018-11-01T16:16:04.188Z,100236.26
2018-11-01T16:18:34.010Z,100238.86
2018-11-01T16:21:03.988Z,100238.59
2018-11-01T16:23:33.905Z,100245.55
2018-11-01T16:26:03.794Z,100231.45
2018-11-01T16:28:33.763Z,100227.44
2018-11-01T16:31:08.598Z,100222.63
2018-11-01T16:33:38.855Z,100225.61
2018-11-01T16:36:08.921Z,100222.89
2018-11-01T16:38:38.894Z,100230.80
2018-11-01T16:41:12.468Z,100229.97
2018-11-01T16:43:42.396Z,100235.42
2018-11-01T16:46:12.395Z,100228.09
2018-11-01T16:48:42.372Z,100229.12
2018-11-01T16:51:15.742Z,100221.07
2018-11-01T16:53:45.940Z,100217.56
2018-11-01T16:56:16.192Z,100212.82
2018-11-01T16:58:46.953Z,100214.20
2018-11-01T17:01:16.892Z,100209.73
2018-11-01T17:03:47.010Z,100221.60
2018-11-01T17:06:17.675Z,100216.27
2018-11-01T17:08:47.772Z,100207.33
2018-11-01T17:11:17.902Z,100212.25
2018-11-01T17:13:47.908Z,100223.02
2018-11-01T17:16:18.788Z,100218.47
2018-11-01T17:18:50.212Z,100218.09
2018-11-01T17:21:20.152Z,100227.55
2018-11-01T17:23:50.308Z,100225.87
2018-11-01T17:26:20.434Z,100225.11
2018-11-01T17:28:50.521Z,100226.02
2018-11-01T17:31:21.083Z,100224.57
2018-11-01T17:33:51.141Z,100227.44
2018-11-01T17:36:21.136Z,100232.36
2018-11-01T17:38:51.131Z,100239.38
2018-11-01T17:41:21.187Z,100238.84
2018-11-01T17:43:51.286Z,100242.44
2018-11-01T17:46:21.251Z,100239.23
2018-11-01T17:48:50.904Z,100244.29
2018-11-01T17:51:25.518Z,100233.58
2018-11-01T17:53:55.470Z,100243.39
2018-11-01T17:56:25.526Z,100240.87
2018-11-01T17:58:57.341Z,100233.78
2018-11-01T18:01:27.580Z,100241.52
2018-11-01T18:04:10.500Z,100247.55
2018-11-01T18:06:40.537Z,100245.03
2018-11-01T18:09:14.348Z,100251.38
2018-11-01T18:11:44.798Z,100244.96
2018-11-01T18:14:14.685Z,100249.42
2018-11-01T18:16:44.558Z,100247.63
2018-11-01T18:19:16.588Z,100240.80
2018-11-01T18:21:46.571Z,100240.91
2018-11-01T18:24:16.581Z,100237.62
2018-11-01T18:26:46.775Z,100239.75
2018-11-01T18:29:16.839Z,100242.28
2018-11-01T18:31:47.806Z,100244.56
2018-11-01T18:34:17.850Z,100247.09
2018-11-01T18:36:47.818Z,100251.25
2018-11-01T18:39:17.686Z,100263.24
2018-11-01T18:41:47.566Z,100266.50
2018-11-01T18:44:17.619Z,100265.09
2018-11-01T18:46:51.655Z,100267.99
2018-11-01T18:49:21.837Z,100269.75
2018-11-01T18:51:51.932Z,100274.22
2018-11-01T18:54:23.006Z,100265.21
2018-11-01T18:56:54.802Z,100279.88
2018-11-01T18:59:24.760Z,100276.89
2018-11-01T19:01:54.715Z,100280.41
2018-11-01T19:04:24.965Z,100281.81
2018-11-01T19:06:55.018Z,100277.92
2018-11-01T19:09:24.952Z,100271.84
2018-11-01T19:11:54.943Z,100273.58
2018-11-01T19:14:25.161Z,100283.27
2018-11-01T19:16:55.129Z,100279.38
2018-11-01T19:19:25.091Z,100279.56
2018-11-01T19:24:37.272Z,100280.79
2018-11-01T19:27:07.630Z,100283.77
2018-11-01T19:29:37.438Z,100282.89
2018-11-01T19:32:12.046Z,100291.98
2018-11-01T19:34:42.093Z,100290.03
2018-11-01T19:37:12.030Z,100288.73
2018-11-01T19:39:42.059Z,100285.06
2018-11-01T19:42:12.247Z,100294.12
2018-11-01T19:44:42.609Z,100296.06
2018-11-01T19:47:12.598Z,100297.17
2018-11-01T19:49:44.649Z,100303.90
2018-11-01T19:52:25.916Z,100301.91
2018-11-01T19:54:57.148Z,100298.47
2018-11-01T19:57:27.149Z,100295.22
2018-11-01T19:59:57.040Z,100300.34
2018-11-01T20:02:27.012Z,100296.38
2018-11-01T20:04:56.836Z,100294.97
2018-11-01T20:07:31.040Z,100289.77
2018-11-01T20:10:01.067Z,100292.75
2018-11-01T20:12:33.528Z,100296.65
2018-11-01T20:15:03.500Z,100303.08
2018-11-01T20:17:39.515Z,100308.98
2018-11-01T20:20:12.792Z,100304.56
2018-11-01T20:22:43.586Z,100303.41
2018-11-01T20:25:13.550Z,100301.13
2018-11-01T20:27:44.150Z,100306.66
2018-11-01T20:30:16.801Z,100299.70
2018-11-01T20:32:46.899Z,100304.38
2018-11-01T20:35:17.222Z,100303.91
2018-11-01T20:37:47.356Z,100307.31
2018-11-01T20:40:17.420Z,100314.65
2018-11-01T20:42:48.356Z,100310.94
2018-11-01T20:45:18.349Z,100308.20
2018-11-01T20:47:48.338Z,100306.33
2018-11-01T20:50:18.367Z,100306.25
2018-11-01T20:52:50.305Z,100310.94
2018-11-01T20:55:20.187Z,100308.34
2018-11-01T20:57:50.317Z,100313.16
2018-11-01T21:00:20.062Z,100320.16
2018-11-01T21:02:50.063Z,100315.34
2018-11-01T21:05:19.891Z,100325.04
2018-11-01T21:07:49.777Z,100329.39
2018-11-01T21:10:19.705Z,100331.20
2018-11-01T21:12:49.589Z,100326.27
2018-11-01T21:15:19.487Z,100321.72
2018-11-01T21:17:49.425Z,100309.56
2018-11-01T21:20:23.265Z,100310.41
2018-11-01T21:22:53.190Z,100316.14
2018-11-01T21:25:23.166Z,100321.19
2018-11-01T21:27:53.244Z,100323.33
2018-11-01T21:30:24.201Z,100327.45
2018-11-01T21:32:54.156Z,100323.13
2018-11-01T21:35:24.174Z,100319.20
2018-11-01T21:37:54.200Z,100318.47
2018-11-01T21:40:24.060Z,100321.80
2018-11-01T21:42:53.975Z,100323.94
2018-11-01T21:45:23.823Z,100317.82
2018-11-01T21:47:57.457Z,100315.88
2018-11-01T21:50:27.384Z,100325.09
2018-11-01T21:52:57.708Z,100334.83
2018-11-01T21:55:27.571Z,100334.91
2018-11-01T21:57:57.619Z,100331.46
2018-11-01T22:00:27.374Z,100341.97
2018-11-01T22:02:57.483Z,100330.28
2018-11-01T22:05:27.467Z,100343.42
2018-11-01T22:07:58.920Z,100332.64
2018-11-01T22:10:29.329Z,100338.03
2018-11-01T22:12:59.553Z,100339.53
2018-11-01T22:15:29.523Z,100347.17
2018-11-01T22:17:59.448Z,100340.21
2018-11-01T22:20:29.428Z,100343.53
2018-11-01T22:22:59.381Z,100348.35
2018-11-01T22:25:29.288Z,100346.52
2018-11-01T22:27:59.201Z,100354.78
2018-11-01T22:30:29.153Z,100353.02
2018-11-01T22:32:59.095Z,100360.44
2018-11-01T22:35:29.055Z,100358.73
2018-11-01T22:37:58.993Z,100359.25
2018-11-01T22:40:29.087Z,100355.50
2018-11-01T22:42:58.987Z,100366.16
2018-11-01T22:45:32.594Z,100371.28
2018-11-01T22:48:08.561Z,100369.06
2018-11-01T22:50:38.578Z,100372.77
2018-11-01T22:53:08.606Z,100377.85
2018-11-01T22:55:38.977Z,100378.23
2018-11-01T22:58:08.949Z,100387.00
2018-11-01T23:00:42.558Z,100386.67
2018-11-01T23:03:12.871Z,100394.03
2018-11-01T23:05:42.914Z,100390.05
2018-11-01T23:08:12.858Z,100390.44
2018-11-01T23:10:42.695Z,100398.50
2018-11-01T23:13:12.548Z,100397.93
2018-11-01T23:15:42.419Z,100400.98
2018-11-01T23:18:12.422Z,100395.59
2018-11-01T23:20:42.312Z,100404.81
2018-11-01T23:23:12.259Z,100400.91
2018-11-01T23:25:42.187Z,100397.47
2018-11-01T23:28:11.995Z,100396.70
2018-11-01T23:30:42.012Z,100394.49
2018-11-01T23:33:11.999Z,100395.41
2018-11-01T23:35:42.834Z,100403.44
2018-11-01T23:38:17.751Z,100396.52
2018-11-01T23:40:52.536Z,100406.19
2018-11-01T23:43:27.355Z,100410.20
2018-11-01T23:46:02.269Z,100414.48
2018-11-01T23:48:31.212Z,100408.64
2018-11-01T23:51:09.598Z,100415.14
2018-11-01T23:53:42.678Z,100415.28
2018-11-01T23:56:12.572Z,100420.34
2018-11-01T23:58:42.596Z,100427.30
